sensor_id;sensor_type;location;lat;lon;timestamp;P1;durP1;ratioP1;P2;durP2;ratioP2
13222;SDS011;6676;45.192;5.722;2023-04-24T00:02:28;0.90;;;0.60;;
13222;SDS011;6676;45.192;5.722;2023-04-24T00:05:23;0.68;;;0.55;;
13222;SDS011;6676;45.192;5.722;2023-04-24T00:08:14;1.98;;;0.68;;
13222;SDS011;6676;45.192;5.722;2023-04-24T00:11:06;1.40;;;0.60;;
13222;SDS011;6676;45.192;5.722;2023-04-24T00:13:58;0.98;;;0.53;;
13222;SDS011;6676;45.192;5.722;2023-04-24T00:16:49;1.25;;;0.60;;
13222;SDS011;6676;45.192;5.722;2023-04-24T00:19:41;0.72;;;0.50;;
13222;SDS011;6676;45.192;5.722;2023-04-24T00:22:32;0.72;;;0.60;;
13222;SDS011;6676;45.192;5.722;2023-04-24T00:25:24;0.70;;;0.60;;
13222;SDS011;6676;45.192;5.722;2023-04-24T00:28:16;2.17;;;0.65;;
13222;SDS011;6676;45.192;5.722;2023-04-24T00:31:07;1.95;;;0.60;;
13222;SDS011;6676;45.192;5.722;2023-04-24T00:33:58;2.90;;;0.60;;
13222;SDS011;6676;45.192;5.722;2023-04-24T00:36:49;1.62;;;0.50;;
13222;SDS011;6676;45.192;5.722;2023-04-24T00:39:41;0.50;;;0.30;;
13222;SDS011;6676;45.192;5.722;2023-04-24T00:42:32;0.53;;;0.40;;
13222;SDS011;6676;45.192;5.722;2023-04-24T00:45:24;0.93;;;0.70;;
13222;SDS011;6676;45.192;5.722;2023-04-24T00:48:16;1.70;;;0.50;;
13222;SDS011;6676;45.192;5.722;2023-04-24T00:51:08;1.40;;;0.45;;
13222;SDS011;6676;45.192;5.722;2023-04-24T00:54:00;2.00;;;0.50;;
13222;SDS011;6676;45.192;5.722;2023-04-24T00:56:51;1.95;;;0.60;;
13222;SDS011;6676;45.192;5.722;2023-04-24T00:59:43;0.47;;;0.40;;
13222;SDS011;6676;45.192;5.722;2023-04-24T01:02:35;1.57;;;0.50;;
13222;SDS011;6676;45.192;5.722;2023-04-24T01:05:28;1.47;;;0.50;;
13222;SDS011;6676;45.192;5.722;2023-04-24T01:08:12;2.60;;;0.53;;
13222;SDS011;6676;45.192;5.722;2023-04-24T01:11:04;0.40;;;0.40;;
13222;SDS011;6676;45.192;5.722;2023-04-24T01:13:55;2.95;;;0.50;;
13222;SDS011;6676;45.192;5.722;2023-04-24T01:16:48;1.50;;;0.80;;
13222;SDS011;6676;45.192;5.722;2023-04-24T01:19:41;1.27;;;0.60;;
13222;SDS011;6676;45.192;5.722;2023-04-24T01:22:33;1.30;;;0.85;;
13222;SDS011;6676;45.192;5.722;2023-04-24T01:25:31;2.10;;;0.78;;
13222;SDS011;6676;45.192;5.722;2023-04-24T01:28:23;1.10;;;0.60;;
13222;SDS011;6676;45.192;5.722;2023-04-24T01:31:14;1.22;;;0.90;;
13222;SDS011;6676;45.192;5.722;2023-04-24T01:34:06;1.05;;;0.60;;
13222;SDS011;6676;45.192;5.722;2023-04-24T01:36:58;1.05;;;0.68;;
13222;SDS011;6676;45.192;5.722;2023-04-24T01:39:49;0.78;;;0.60;;
13222;SDS011;6676;45.192;5.722;2023-04-24T01:42:42;1.75;;;0.50;;
13222;SDS011;6676;45.192;5.722;2023-04-24T01:45:34;1.98;;;0.60;;
13222;SDS011;6676;45.192;5.722;2023-04-24T01:48:27;3.10;;;0.50;;
13222;SDS011;6676;45.192;5.722;2023-04-24T01:51:19;2.05;;;0.40;;
13222;SDS011;6676;45.192;5.722;2023-04-24T01:54:10;4.28;;;0.50;;
13222;SDS011;6676;45.192;5.722;2023-04-24T01:57:02;2.00;;;0.42;;
13222;SDS011;6676;45.192;5.722;2023-04-24T01:59:53;0.78;;;0.42;;
13222;SDS011;6676;45.192;5.722;2023-04-24T02:02:45;0.75;;;0.33;;
13222;SDS011;6676;45.192;5.722;2023-04-24T02:05:37;0.40;;;0.30;;
13222;SDS011;6676;45.192;5.722;2023-04-24T02:08:28;0.50;;;0.35;;
13222;SDS011;6676;45.192;5.722;2023-04-24T02:11:20;1.00;;;0.53;;
13222;SDS011;6676;45.192;5.722;2023-04-24T02:14:11;3.47;;;0.60;;
13222;SDS011;6676;45.192;5.722;2023-04-24T02:17:03;1.55;;;0.45;;
13222;SDS011;6676;45.192;5.722;2023-04-24T02:19:56;0.55;;;0.40;;
13222;SDS011;6676;45.192;5.722;2023-04-24T02:22:52;0.35;;;0.35;;
13222;SDS011;6676;45.192;5.722;2023-04-24T02:25:43;1.72;;;0.60;;
13222;SDS011;6676;45.192;5.722;2023-04-24T02:28:37;0.47;;;0.40;;
13222;SDS011;6676;45.192;5.722;2023-04-24T02:31:29;0.72;;;0.40;;
13222;SDS011;6676;45.192;5.722;2023-04-24T02:34:20;0.60;;;0.30;;
13222;SDS011;6676;45.192;5.722;2023-04-24T02:37:12;1.37;;;0.42;;
13222;SDS011;6676;45.192;5.722;2023-04-24T02:40:05;2.67;;;0.40;;
13222;SDS011;6676;45.192;5.722;2023-04-24T02:42:59;1.52;;;0.30;;
13222;SDS011;6676;45.192;5.722;2023-04-24T02:45:50;1.35;;;0.30;;
13222;SDS011;6676;45.192;5.722;2023-04-24T02:48:42;0.70;;;0.30;;
13222;SDS011;6676;45.192;5.722;2023-04-24T02:51:33;0.65;;;0.40;;
13222;SDS011;6676;45.192;5.722;2023-04-24T02:54:26;2.30;;;0.40;;
13222;SDS011;6676;45.192;5.722;2023-04-24T02:57:17;1.67;;;0.40;;
13222;SDS011;6676;45.192;5.722;2023-04-24T03:00:10;1.05;;;0.40;;
13222;SDS011;6676;45.192;5.722;2023-04-24T03:03:02;1.62;;;0.35;;
13222;SDS011;6676;45.192;5.722;2023-04-24T03:05:55;0.25;;;0.20;;
13222;SDS011;6676;45.192;5.722;2023-04-24T03:08:47;0.68;;;0.35;;
13222;SDS011;6676;45.192;5.722;2023-04-24T03:11:39;2.27;;;0.42;;
13222;SDS011;6676;45.192;5.722;2023-04-24T03:14:30;1.57;;;0.40;;
13222;SDS011;6676;45.192;5.722;2023-04-24T03:17:22;1.12;;;0.40;;
13222;SDS011;6676;45.192;5.722;2023-04-24T03:20:14;0.55;;;0.30;;
13222;SDS011;6676;45.192;5.722;2023-04-24T03:23:06;0.70;;;0.40;;
13222;SDS011;6676;45.192;5.722;2023-04-24T03:25:57;0.75;;;0.40;;
13222;SDS011;6676;45.192;5.722;2023-04-24T03:28:50;2.45;;;0.37;;
13222;SDS011;6676;45.192;5.722;2023-04-24T03:31:42;0.98;;;0.40;;
13222;SDS011;6676;45.192;5.722;2023-04-24T03:34:34;0.60;;;0.30;;
13222;SDS011;6676;45.192;5.722;2023-04-24T03:37:26;1.32;;;0.40;;
13222;SDS011;6676;45.192;5.722;2023-04-24T03:40:25;1.70;;;0.40;;
13222;SDS011;6676;45.192;5.722;2023-04-24T03:43:18;0.95;;;0.78;;
13222;SDS011;6676;45.192;5.722;2023-04-24T03:46:10;0.42;;;0.33;;
13222;SDS011;6676;45.192;5.722;2023-04-24T03:49:05;0.78;;;0.45;;
13222;SDS011;6676;45.192;5.722;2023-04-24T03:51:58;1.00;;;0.53;;
13222;SDS011;6676;45.192;5.722;2023-04-24T03:54:50;1.45;;;0.40;;
13222;SDS011;6676;45.192;5.722;2023-04-24T03:57:43;1.20;;;0.47;;
13222;SDS011;6676;45.192;5.722;2023-04-24T04:00:37;0.95;;;0.42;;
13222;SDS011;6676;45.192;5.722;2023-04-24T04:03:31;0.60;;;0.40;;
13222;SDS011;6676;45.192;5.722;2023-04-24T04:06:23;0.72;;;0.40;;
13222;SDS011;6676;45.192;5.722;2023-04-24T04:09:16;0.75;;;0.50;;
13222;SDS011;6676;45.192;5.722;2023-04-24T04:12:07;1.42;;;0.50;;
13222;SDS011;6676;45.192;5.722;2023-04-24T04:15:02;1.80;;;0.50;;
13222;SDS011;6676;45.192;5.722;2023-04-24T04:17:55;4.67;;;0.50;;
13222;SDS011;6676;45.192;5.722;2023-04-24T04:20:49;1.22;;;0.50;;
13222;SDS011;6676;45.192;5.722;2023-04-24T04:23:40;1.70;;;0.45;;
13222;SDS011;6676;45.192;5.722;2023-04-24T04:26:36;1.37;;;0.60;;
13222;SDS011;6676;45.192;5.722;2023-04-24T04:29:30;3.00;;;0.90;;
13222;SDS011;6676;45.192;5.722;2023-04-24T04:32:24;1.15;;;0.47;;
13222;SDS011;6676;45.192;5.722;2023-04-24T04:35:15;0.72;;;0.60;;
13222;SDS011;6676;45.192;5.722;2023-04-24T04:38:11;1.07;;;0.50;;
13222;SDS011;6676;45.192;5.722;2023-04-24T04:41:04;1.70;;;0.90;;
13222;SDS011;6676;45.192;5.722;2023-04-24T04:43:56;7.42;;;5.10;;
13222;SDS011;6676;45.192;5.722;2023-04-24T04:46:47;10.90;;;7.62;;
13222;SDS011;6676;45.192;5.722;2023-04-24T04:50:06;8.93;;;6.40;;
13222;SDS011;6676;45.192;5.722;2023-04-24T04:52:59;2.27;;;0.88;;
13222;SDS011;6676;45.192;5.722;2023-04-24T04:55:53;3.60;;;2.30;;
13222;SDS011;6676;45.192;5.722;2023-04-24T04:58:46;4.33;;;1.65;;
13222;SDS011;6676;45.192;5.722;2023-04-24T05:01:38;1.52;;;1.12;;
13222;SDS011;6676;45.192;5.722;2023-04-24T05:04:31;1.87;;;1.65;;
13222;SDS011;6676;45.192;5.722;2023-04-24T05:07:23;1.05;;;0.62;;
13222;SDS011;6676;45.192;5.722;2023-04-24T05:10:15;2.08;;;1.02;;
13222;SDS011;6676;45.192;5.722;2023-04-24T05:13:08;4.42;;;1.35;;
13222;SDS011;6676;45.192;5.722;2023-04-24T05:16:01;4.97;;;1.52;;
13222;SDS011;6676;45.192;5.722;2023-04-24T05:18:55;2.95;;;1.98;;
13222;SDS011;6676;45.192;5.722;2023-04-24T05:21:48;4.42;;;2.58;;
13222;SDS011;6676;45.192;5.722;2023-04-24T05:24:40;3.12;;;2.52;;
13222;SDS011;6676;45.192;5.722;2023-04-24T05:27:42;3.35;;;1.80;;
13222;SDS011;6676;45.192;5.722;2023-04-24T05:30:36;1.98;;;1.32;;
13222;SDS011;6676;45.192;5.722;2023-04-24T05:33:27;3.67;;;0.93;;
13222;SDS011;6676;45.192;5.722;2023-04-24T05:36:20;2.00;;;0.98;;
13222;SDS011;6676;45.192;5.722;2023-04-24T05:39:17;3.30;;;0.70;;
13222;SDS011;6676;45.192;5.722;2023-04-24T05:42:11;2.92;;;0.88;;
13222;SDS011;6676;45.192;5.722;2023-04-24T05:45:03;1.82;;;0.95;;
13222;SDS011;6676;45.192;5.722;2023-04-24T05:47:57;2.60;;;0.70;;
13222;SDS011;6676;45.192;5.722;2023-04-24T05:50:48;3.02;;;1.00;;
13222;SDS011;6676;45.192;5.722;2023-04-24T05:53:41;1.92;;;0.70;;
13222;SDS011;6676;45.192;5.722;2023-04-24T05:56:33;1.20;;;0.90;;
13222;SDS011;6676;45.192;5.722;2023-04-24T05:59:25;5.62;;;3.65;;
13222;SDS011;6676;45.192;5.722;2023-04-24T06:02:18;2.95;;;1.12;;
13222;SDS011;6676;45.192;5.722;2023-04-24T06:05:19;1.95;;;1.00;;
13222;SDS011;6676;45.192;5.722;2023-04-24T06:08:13;1.65;;;0.93;;
13222;SDS011;6676;45.192;5.722;2023-04-24T06:11:08;3.00;;;1.17;;
13222;SDS011;6676;45.192;5.722;2023-04-24T06:14:07;2.15;;;0.70;;
13222;SDS011;6676;45.192;5.722;2023-04-24T06:17:00;1.47;;;0.82;;
13222;SDS011;6676;45.192;5.722;2023-04-24T06:19:53;2.98;;;1.05;;
13222;SDS011;6676;45.192;5.722;2023-04-24T06:22:46;2.08;;;0.78;;
13222;SDS011;6676;45.192;5.722;2023-04-24T06:25:39;2.70;;;1.37;;
13222;SDS011;6676;45.192;5.722;2023-04-24T06:28:32;2.75;;;1.00;;
13222;SDS011;6676;45.192;5.722;2023-04-24T06:31:23;2.37;;;0.98;;
13222;SDS011;6676;45.192;5.722;2023-04-24T06:34:15;1.62;;;0.98;;
13222;SDS011;6676;45.192;5.722;2023-04-24T06:37:07;2.10;;;1.10;;
13222;SDS011;6676;45.192;5.722;2023-04-24T06:39:59;1.72;;;0.90;;
13222;SDS011;6676;45.192;5.722;2023-04-24T06:42:50;2.35;;;1.02;;
13222;SDS011;6676;45.192;5.722;2023-04-24T06:45:42;3.45;;;0.95;;
13222;SDS011;6676;45.192;5.722;2023-04-24T06:48:33;3.12;;;0.95;;
13222;SDS011;6676;45.192;5.722;2023-04-24T06:51:25;2.15;;;0.60;;
13222;SDS011;6676;45.192;5.722;2023-04-24T06:54:17;1.35;;;0.80;;
13222;SDS011;6676;45.192;5.722;2023-04-24T06:57:08;1.52;;;0.80;;
13222;SDS011;6676;45.192;5.722;2023-04-24T07:00:01;1.87;;;0.70;;
13222;SDS011;6676;45.192;5.722;2023-04-24T07:02:54;2.83;;;0.80;;
13222;SDS011;6676;45.192;5.722;2023-04-24T07:05:46;1.77;;;0.88;;
13222;SDS011;6676;45.192;5.722;2023-04-24T07:08:38;0.93;;;0.65;;
13222;SDS011;6676;45.192;5.722;2023-04-24T07:11:31;1.90;;;1.00;;
13222;SDS011;6676;45.192;5.722;2023-04-24T07:14:23;1.90;;;1.07;;
13222;SDS011;6676;45.192;5.722;2023-04-24T07:17:19;2.22;;;1.05;;
13222;SDS011;6676;45.192;5.722;2023-04-24T07:20:13;2.35;;;1.10;;
13222;SDS011;6676;45.192;5.722;2023-04-24T07:23:05;2.02;;;1.10;;
13222;SDS011;6676;45.192;5.722;2023-04-24T07:26:09;0.98;;;0.68;;
13222;SDS011;6676;45.192;5.722;2023-04-24T07:29:04;2.12;;;0.90;;
13222;SDS011;6676;45.192;5.722;2023-04-24T07:31:57;1.37;;;0.70;;
13222;SDS011;6676;45.192;5.722;2023-04-24T07:34:53;2.65;;;1.00;;
13222;SDS011;6676;45.192;5.722;2023-04-24T07:37:47;3.00;;;0.95;;
13222;SDS011;6676;45.192;5.722;2023-04-24T07:40:43;2.70;;;0.75;;
13222;SDS011;6676;45.192;5.722;2023-04-24T07:43:38;1.82;;;0.80;;
13222;SDS011;6676;45.192;5.722;2023-04-24T07:46:31;1.52;;;0.57;;
13222;SDS011;6676;45.192;5.722;2023-04-24T07:49:28;2.98;;;1.45;;
13222;SDS011;6676;45.192;5.722;2023-04-24T07:52:23;1.72;;;1.25;;
13222;SDS011;6676;45.192;5.722;2023-04-24T07:55:18;1.92;;;0.70;;
13222;SDS011;6676;45.192;5.722;2023-04-24T07:58:17;0.90;;;0.70;;
13222;SDS011;6676;45.192;5.722;2023-04-24T08:01:09;2.70;;;0.80;;
13222;SDS011;6676;45.192;5.722;2023-04-24T08:04:05;2.20;;;0.95;;
13222;SDS011;6676;45.192;5.722;2023-04-24T08:06:59;4.47;;;0.60;;
13222;SDS011;6676;45.192;5.722;2023-04-24T08:09:52;1.22;;;0.75;;
13222;SDS011;6676;45.192;5.722;2023-04-24T08:12:44;0.60;;;0.40;;
13222;SDS011;6676;45.192;5.722;2023-04-24T08:15:39;1.95;;;0.88;;
13222;SDS011;6676;45.192;5.722;2023-04-24T08:21:12;1.07;;;0.55;;
13222;SDS011;6676;45.192;5.722;2023-04-24T08:24:05;1.60;;;0.50;;
13222;SDS011;6676;45.192;5.722;2023-04-24T08:26:56;1.95;;;0.60;;
13222;SDS011;6676;45.192;5.722;2023-04-24T08:29:49;1.10;;;0.50;;
13222;SDS011;6676;45.192;5.722;2023-04-24T08:32:42;1.65;;;0.50;;
13222;SDS011;6676;45.192;5.722;2023-04-24T08:35:33;2.72;;;0.62;;
13222;SDS011;6676;45.192;5.722;2023-04-24T08:38:27;1.72;;;0.70;;
13222;SDS011;6676;45.192;5.722;2023-04-24T08:41:20;2.85;;;1.12;;
13222;SDS011;6676;45.192;5.722;2023-04-24T08:44:14;1.50;;;1.17;;
13222;SDS011;6676;45.192;5.722;2023-04-24T08:47:06;1.85;;;0.70;;
13222;SDS011;6676;45.192;5.722;2023-04-24T08:49:58;1.07;;;0.70;;
13222;SDS011;6676;45.192;5.722;2023-04-24T08:52:52;2.08;;;1.30;;
13222;SDS011;6676;45.192;5.722;2023-04-24T08:55:46;2.30;;;1.57;;
13222;SDS011;6676;45.192;5.722;2023-04-24T08:58:40;1.55;;;1.37;;
13222;SDS011;6676;45.192;5.722;2023-04-24T09:01:40;2.17;;;1.87;;
13222;SDS011;6676;45.192;5.722;2023-04-24T09:04:36;3.27;;;2.98;;
13222;SDS011;6676;45.192;5.722;2023-04-24T09:07:30;3.37;;;2.80;;
13222;SDS011;6676;45.192;5.722;2023-04-24T09:10:12;1.82;;;1.10;;
13222;SDS011;6676;45.192;5.722;2023-04-24T09:13:04;2.00;;;0.80;;
13222;SDS011;6676;45.192;5.722;2023-04-24T09:15:57;1.95;;;1.00;;
13222;SDS011;6676;45.192;5.722;2023-04-24T09:18:49;1.77;;;0.60;;
13222;SDS011;6676;45.192;5.722;2023-04-24T09:21:45;2.35;;;0.68;;
13222;SDS011;6676;45.192;5.722;2023-04-24T09:24:36;0.98;;;0.50;;
13222;SDS011;6676;45.192;5.722;2023-04-24T09:27:28;2.77;;;2.37;;
13222;SDS011;6676;45.192;5.722;2023-04-24T09:30:21;3.50;;;0.95;;
13222;SDS011;6676;45.192;5.722;2023-04-24T09:33:13;1.35;;;0.57;;
13222;SDS011;6676;45.192;5.722;2023-04-24T09:36:05;0.93;;;0.53;;
13222;SDS011;6676;45.192;5.722;2023-04-24T09:38:58;1.37;;;0.90;;
13222;SDS011;6676;45.192;5.722;2023-04-24T09:41:51;1.32;;;0.80;;
13222;SDS011;6676;45.192;5.722;2023-04-24T09:44:44;1.42;;;0.60;;
13222;SDS011;6676;45.192;5.722;2023-04-24T09:47:26;1.50;;;0.70;;
13222;SDS011;6676;45.192;5.722;2023-04-24T09:50:19;1.37;;;0.70;;
13222;SDS011;6676;45.192;5.722;2023-04-24T09:53:11;1.62;;;0.70;;
13222;SDS011;6676;45.192;5.722;2023-04-24T09:56:06;1.90;;;0.70;;
13222;SDS011;6676;45.192;5.722;2023-04-24T09:59:04;2.30;;;0.70;;
13222;SDS011;6676;45.192;5.722;2023-04-24T10:01:56;2.60;;;1.10;;
13222;SDS011;6676;45.192;5.722;2023-04-24T10:04:54;1.47;;;0.70;;
13222;SDS011;6676;45.192;5.722;2023-04-24T10:07:45;3.50;;;0.70;;
13222;SDS011;6676;45.192;5.722;2023-04-24T10:10:39;0.50;;;0.42;;
13222;SDS011;6676;45.192;5.722;2023-04-24T10:13:31;0.93;;;0.50;;
13222;SDS011;6676;45.192;5.722;2023-04-24T10:16:23;1.25;;;0.60;;
13222;SDS011;6676;45.192;5.722;2023-04-24T10:19:17;1.50;;;0.65;;
13222;SDS011;6676;45.192;5.722;2023-04-24T10:22:08;2.00;;;0.75;;
13222;SDS011;6676;45.192;5.722;2023-04-24T10:25:00;1.07;;;0.50;;
13222;SDS011;6676;45.192;5.722;2023-04-24T10:27:57;1.07;;;0.47;;
13222;SDS011;6676;45.192;5.722;2023-04-24T10:30:52;0.88;;;0.40;;
13222;SDS011;6676;45.192;5.722;2023-04-24T10:33:46;1.57;;;0.40;;
13222;SDS011;6676;45.192;5.722;2023-04-24T10:36:26;3.10;;;0.40;;
13222;SDS011;6676;45.192;5.722;2023-04-24T10:39:20;0.75;;;0.40;;
13222;SDS011;6676;45.192;5.722;2023-04-24T10:42:15;1.72;;;0.55;;
13222;SDS011;6676;45.192;5.722;2023-04-24T10:45:07;0.78;;;0.40;;
13222;SDS011;6676;45.192;5.722;2023-04-24T10:48:07;0.57;;;0.40;;
13222;SDS011;6676;45.192;5.722;2023-04-24T10:51:02;3.70;;;2.20;;
13222;SDS011;6676;45.192;5.722;2023-04-24T10:53:55;1.32;;;0.70;;
13222;SDS011;6676;45.192;5.722;2023-04-24T10:56:35;0.95;;;0.55;;
13222;SDS011;6676;45.192;5.722;2023-04-24T10:59:27;0.68;;;0.50;;
13222;SDS011;6676;45.192;5.722;2023-04-24T11:02:23;1.10;;;0.70;;
13222;SDS011;6676;45.192;5.722;2023-04-24T11:05:15;1.95;;;0.57;;
13222;SDS011;6676;45.192;5.722;2023-04-24T11:08:10;0.95;;;0.70;;
13222;SDS011;6676;45.192;5.722;2023-04-24T11:11:07;1.05;;;0.40;;
13222;SDS011;6676;45.192;5.722;2023-04-24T11:14:07;1.50;;;0.50;;
13222;SDS011;6676;45.192;5.722;2023-04-24T11:19:52;0.80;;;0.55;;
13222;SDS011;6676;45.192;5.722;2023-04-24T11:22:51;0.70;;;0.50;;
13222;SDS011;6676;45.192;5.722;2023-04-24T11:25:52;2.83;;;0.62;;
13222;SDS011;6676;45.192;5.722;2023-04-24T11:28:46;1.25;;;0.60;;
13222;SDS011;6676;45.192;5.722;2023-04-24T11:31:39;0.90;;;0.33;;
13222;SDS011;6676;45.192;5.722;2023-04-24T11:34:34;2.58;;;1.12;;
13222;SDS011;6676;45.192;5.722;2023-04-24T11:37:33;3.40;;;0.62;;
13222;SDS011;6676;45.192;5.722;2023-04-24T11:40:24;0.82;;;0.40;;
13222;SDS011;6676;45.192;5.722;2023-04-24T11:43:16;1.25;;;0.40;;
13222;SDS011;6676;45.192;5.722;2023-04-24T11:46:09;0.78;;;0.30;;
13222;SDS011;6676;45.192;5.722;2023-04-24T11:49:01;1.77;;;0.80;;
13222;SDS011;6676;45.192;5.722;2023-04-24T11:51:55;0.75;;;0.57;;
13222;SDS011;6676;45.192;5.722;2023-04-24T11:54:49;0.82;;;0.40;;
13222;SDS011;6676;45.192;5.722;2023-04-24T11:57:41;0.47;;;0.30;;
13222;SDS011;6676;45.192;5.722;2023-04-24T12:00:36;1.42;;;0.50;;
13222;SDS011;6676;45.192;5.722;2023-04-24T12:03:29;1.00;;;0.50;;
13222;SDS011;6676;45.192;5.722;2023-04-24T12:06:21;0.85;;;0.57;;
13222;SDS011;6676;45.192;5.722;2023-04-24T12:09:13;1.40;;;0.30;;
13222;SDS011;6676;45.192;5.722;2023-04-24T12:12:06;1.20;;;0.50;;
13222;SDS011;6676;45.192;5.722;2023-04-24T12:14:59;0.42;;;0.40;;
13222;SDS011;6676;45.192;5.722;2023-04-24T12:17:52;0.50;;;0.35;;
13222;SDS011;6676;45.192;5.722;2023-04-24T12:20:44;0.88;;;0.47;;
13222;SDS011;6676;45.192;5.722;2023-04-24T12:23:35;3.47;;;0.50;;
13222;SDS011;6676;45.192;5.722;2023-04-24T12:26:27;0.57;;;0.47;;
13222;SDS011;6676;45.192;5.722;2023-04-24T12:29:20;2.35;;;0.53;;
13222;SDS011;6676;45.192;5.722;2023-04-24T12:32:16;2.00;;;0.68;;
13222;SDS011;6676;45.192;5.722;2023-04-24T12:35:08;0.98;;;0.53;;
13222;SDS011;6676;45.192;5.722;2023-04-24T12:38:05;0.60;;;0.50;;
13222;SDS011;6676;45.192;5.722;2023-04-24T12:41:04;1.27;;;0.68;;
13222;SDS011;6676;45.192;5.722;2023-04-24T12:43:57;1.05;;;0.50;;
13222;SDS011;6676;45.192;5.722;2023-04-24T12:46:48;0.90;;;0.40;;
13222;SDS011;6676;45.192;5.722;2023-04-24T12:49:39;0.90;;;0.42;;
13222;SDS011;6676;45.192;5.722;2023-04-24T12:52:31;1.67;;;0.60;;
13222;SDS011;6676;45.192;5.722;2023-04-24T12:55:22;1.60;;;0.50;;
13222;SDS011;6676;45.192;5.722;2023-04-24T12:58:14;1.37;;;0.47;;
13222;SDS011;6676;45.192;5.722;2023-04-24T13:01:05;0.98;;;0.40;;
13222;SDS011;6676;45.192;5.722;2023-04-24T13:03:57;0.35;;;0.33;;
13222;SDS011;6676;45.192;5.722;2023-04-24T13:06:49;1.70;;;0.30;;
13222;SDS011;6676;45.192;5.722;2023-04-24T13:09:29;1.10;;;0.50;;
13222;SDS011;6676;45.192;5.722;2023-04-24T13:12:21;0.78;;;0.62;;
13222;SDS011;6676;45.192;5.722;2023-04-24T13:15:14;2.62;;;0.50;;
13222;SDS011;6676;45.192;5.722;2023-04-24T13:18:05;0.93;;;0.35;;
13222;SDS011;6676;45.192;5.722;2023-04-24T13:20:57;2.10;;;0.53;;
13222;SDS011;6676;45.192;5.722;2023-04-24T13:23:49;1.02;;;0.47;;
13222;SDS011;6676;45.192;5.722;2023-04-24T13:26:40;1.70;;;0.40;;
13222;SDS011;6676;45.192;5.722;2023-04-24T13:29:32;1.62;;;0.42;;
13222;SDS011;6676;45.192;5.722;2023-04-24T13:32:23;1.95;;;0.50;;
13222;SDS011;6676;45.192;5.722;2023-04-24T13:35:19;0.70;;;0.33;;
13222;SDS011;6676;45.192;5.722;2023-04-24T13:38:12;2.12;;;0.50;;
13222;SDS011;6676;45.192;5.722;2023-04-24T13:41:03;1.07;;;0.50;;
13222;SDS011;6676;45.192;5.722;2023-04-24T13:43:55;0.95;;;0.40;;
13222;SDS011;6676;45.192;5.722;2023-04-24T13:46:47;1.30;;;0.50;;
13222;SDS011;6676;45.192;5.722;2023-04-24T13:49:40;1.37;;;0.40;;
13222;SDS011;6676;45.192;5.722;2023-04-24T13:52:31;3.08;;;0.37;;
13222;SDS011;6676;45.192;5.722;2023-04-24T13:55:25;1.12;;;0.40;;
13222;SDS011;6676;45.192;5.722;2023-04-24T13:58:17;1.15;;;0.40;;
13222;SDS011;6676;45.192;5.722;2023-04-24T14:01:08;0.60;;;0.40;;
13222;SDS011;6676;45.192;5.722;2023-04-24T14:04:00;0.80;;;0.55;;
13222;SDS011;6676;45.192;5.722;2023-04-24T14:06:52;2.65;;;0.40;;
13222;SDS011;6676;45.192;5.722;2023-04-24T14:12:22;1.47;;;0.40;;
13222;SDS011;6676;45.192;5.722;2023-04-24T14:15:14;2.37;;;0.40;;
13222;SDS011;6676;45.192;5.722;2023-04-24T14:18:06;2.22;;;0.60;;
13222;SDS011;6676;45.192;5.722;2023-04-24T14:20:57;1.32;;;0.40;;
13222;SDS011;6676;45.192;5.722;2023-04-24T14:23:49;1.25;;;0.50;;
13222;SDS011;6676;45.192;5.722;2023-04-24T14:26:41;0.88;;;0.47;;
13222;SDS011;6676;45.192;5.722;2023-04-24T14:29:32;1.60;;;0.50;;
13222;SDS011;6676;45.192;5.722;2023-04-24T14:32:24;1.62;;;0.60;;
13222;SDS011;6676;45.192;5.722;2023-04-24T14:35:15;0.88;;;0.45;;
13222;SDS011;6676;45.192;5.722;2023-04-24T14:38:07;1.42;;;0.40;;
13222;SDS011;6676;45.192;5.722;2023-04-24T14:40:59;0.65;;;0.40;;
13222;SDS011;6676;45.192;5.722;2023-04-24T14:43:54;1.80;;;0.50;;
13222;SDS011;6676;45.192;5.722;2023-04-24T14:46:45;0.95;;;0.50;;
13222;SDS011;6676;45.192;5.722;2023-04-24T14:49:26;1.25;;;0.70;;
13222;SDS011;6676;45.192;5.722;2023-04-24T14:52:17;0.78;;;0.40;;
13222;SDS011;6676;45.192;5.722;2023-04-24T14:55:09;1.30;;;0.60;;
13222;SDS011;6676;45.192;5.722;2023-04-24T14:58:02;0.85;;;0.50;;
13222;SDS011;6676;45.192;5.722;2023-04-24T15:00:53;3.00;;;0.70;;
13222;SDS011;6676;45.192;5.722;2023-04-24T15:03:45;1.55;;;0.65;;
13222;SDS011;6676;45.192;5.722;2023-04-24T15:06:37;0.85;;;0.50;;
13222;SDS011;6676;45.192;5.722;2023-04-24T15:09:29;2.75;;;0.60;;
13222;SDS011;6676;45.192;5.722;2023-04-24T15:12:21;0.85;;;0.40;;
13222;SDS011;6676;45.192;5.722;2023-04-24T15:15:13;0.88;;;0.40;;
13222;SDS011;6676;45.192;5.722;2023-04-24T15:18:24;0.37;;;0.30;;
13222;SDS011;6676;45.192;5.722;2023-04-24T15:21:17;1.65;;;0.60;;
13222;SDS011;6676;45.192;5.722;2023-04-24T15:24:11;0.88;;;0.40;;
13222;SDS011;6676;45.192;5.722;2023-04-24T15:27:10;3.27;;;0.60;;
13222;SDS011;6676;45.192;5.722;2023-04-24T15:30:01;0.95;;;0.50;;
13222;SDS011;6676;45.192;5.722;2023-04-24T15:32:54;1.55;;;0.60;;
13222;SDS011;6676;45.192;5.722;2023-04-24T15:35:46;1.25;;;0.57;;
13222;SDS011;6676;45.192;5.722;2023-04-24T15:38:39;1.25;;;0.47;;
13222;SDS011;6676;45.192;5.722;2023-04-24T15:41:31;1.55;;;0.53;;
13222;SDS011;6676;45.192;5.722;2023-04-24T15:44:27;0.95;;;0.42;;
13222;SDS011;6676;45.192;5.722;2023-04-24T15:47:21;1.00;;;0.50;;
13222;SDS011;6676;45.192;5.722;2023-04-24T15:50:15;1.12;;;0.50;;
13222;SDS011;6676;45.192;5.722;2023-04-24T15:53:12;0.93;;;0.47;;
13222;SDS011;6676;45.192;5.722;2023-04-24T15:56:17;0.78;;;0.60;;
13222;SDS011;6676;45.192;5.722;2023-04-24T15:59:08;4.67;;;0.50;;
13222;SDS011;6676;45.192;5.722;2023-04-24T16:02:13;2.08;;;0.55;;
13222;SDS011;6676;45.192;5.722;2023-04-24T16:05:11;2.42;;;0.50;;
13222;SDS011;6676;45.192;5.722;2023-04-24T16:08:06;1.80;;;0.50;;
13222;SDS011;6676;45.192;5.722;2023-04-24T16:11:02;0.80;;;0.60;;
13222;SDS011;6676;45.192;5.722;2023-04-24T16:13:58;1.27;;;0.60;;
13222;SDS011;6676;45.192;5.722;2023-04-24T16:16:49;1.80;;;0.70;;
13222;SDS011;6676;45.192;5.722;2023-04-24T16:19:42;1.67;;;0.60;;
13222;SDS011;6676;45.192;5.722;2023-04-24T16:22:34;0.75;;;0.50;;
13222;SDS011;6676;45.192;5.722;2023-04-24T16:25:26;1.50;;;0.60;;
13222;SDS011;6676;45.192;5.722;2023-04-24T16:28:18;0.98;;;0.50;;
13222;SDS011;6676;45.192;5.722;2023-04-24T16:31:10;1.30;;;0.50;;
13222;SDS011;6676;45.192;5.722;2023-04-24T16:34:02;1.47;;;0.50;;
13222;SDS011;6676;45.192;5.722;2023-04-24T16:36:53;1.42;;;0.50;;
13222;SDS011;6676;45.192;5.722;2023-04-24T16:39:45;1.60;;;0.45;;
13222;SDS011;6676;45.192;5.722;2023-04-24T16:42:37;2.90;;;0.50;;
13222;SDS011;6676;45.192;5.722;2023-04-24T16:45:28;1.45;;;0.50;;
13222;SDS011;6676;45.192;5.722;2023-04-24T16:48:21;1.67;;;0.47;;
13222;SDS011;6676;45.192;5.722;2023-04-24T16:51:15;1.47;;;0.60;;
13222;SDS011;6676;45.192;5.722;2023-04-24T16:54:06;1.30;;;0.60;;
13222;SDS011;6676;45.192;5.722;2023-04-24T16:56:58;2.37;;;0.47;;
13222;SDS011;6676;45.192;5.722;2023-04-24T16:59:49;1.17;;;0.72;;
13222;SDS011;6676;45.192;5.722;2023-04-24T17:02:41;1.52;;;0.50;;
13222;SDS011;6676;45.192;5.722;2023-04-24T17:05:35;0.80;;;0.50;;
13222;SDS011;6676;45.192;5.722;2023-04-24T17:08:26;2.05;;;0.88;;
13222;SDS011;6676;45.192;5.722;2023-04-24T17:11:19;0.98;;;0.60;;
13222;SDS011;6676;45.192;5.722;2023-04-24T17:14:10;1.25;;;0.80;;
13222;SDS011;6676;45.192;5.722;2023-04-24T17:17:01;1.15;;;0.62;;
13222;SDS011;6676;45.192;5.722;2023-04-24T17:19:58;1.42;;;0.50;;
13222;SDS011;6676;45.192;5.722;2023-04-24T17:25:35;1.00;;;0.62;;
13222;SDS011;6676;45.192;5.722;2023-04-24T17:28:29;1.67;;;0.70;;
13222;SDS011;6676;45.192;5.722;2023-04-24T17:34:15;1.35;;;0.60;;
13222;SDS011;6676;45.192;5.722;2023-04-24T17:37:06;0.95;;;0.60;;
13222;SDS011;6676;45.192;5.722;2023-04-24T17:40:06;1.57;;;0.88;;
13222;SDS011;6676;45.192;5.722;2023-04-24T17:45:39;1.10;;;0.70;;
13222;SDS011;6676;45.192;5.722;2023-04-24T17:48:30;1.45;;;0.50;;
13222;SDS011;6676;45.192;5.722;2023-04-24T17:51:22;1.15;;;0.65;;
13222;SDS011;6676;45.192;5.722;2023-04-24T17:54:16;1.57;;;0.57;;